Terminal Aerodrome Forecast
Issued by NWS

Home | Current Version | Previous Version | Text Only | Print | Product List | Glossary On
Versions: 1 2 3 4 5 6 7 8 9 10 11 12 13 14 15 16 17 18
000
FTAK31 PAJN 080744 AAA
TAFAYA
TAF AMD
PAYA 080744Z 0808/0906 07010KT 4SM -SN BR FEW004 BKN025 OVC040
      TEMPO 0808/0812 09010G15KT 1/2SM SN FZFG VV002
     FM081200 09010KT 4SM -SN BR FEW006 SCT010 OVC025
      TEMPO 0812/0816 06010KT 1/2SM SN FZFG VV002
     FM081700 06010KT P6SM -SHSN BKN015 OVC025
     FM082100 06010KT P6SM SCT015 OVC025
     FM082300 06010KT P6SM SCT030 SCT060
      AMD LTD TO CLD VIS AND WIND 0806/0809=

USA.gov is the U.S. government's official web portal to all federal, state and local government web resources and services.